createdAt,value
2022-09-13T00:13:08.934Z,44.5
2022-09-13T00:44:11.640Z,44
2022-09-13T01:15:14.270Z,44
2022-09-13T01:47:16.791Z,43.5
2022-09-13T02:18:19.216Z,43.5
2022-09-13T02:48:21.647Z,42.9
2022-09-13T03:18:24.293Z,42.9
2022-09-13T03:48:27.130Z,43.5
2022-09-13T04:18:29.305Z,42.9
2022-09-13T04:48:31.669Z,42.9
2022-09-13T05:18:34.099Z,44
2022-09-13T05:49:36.734Z,45.1
2022-09-13T06:19:39.193Z,46.2
2022-09-13T06:49:43.570Z,47.2
2022-09-13T07:19:46.393Z,51
2022-09-13T07:50:48.892Z,65
2022-09-13T08:22:51.625Z,69.3
2022-09-13T08:52:54.283Z,74.1
2022-09-13T09:23:56.901Z,74.1
2022-09-13T09:53:59.534Z,77.4
2022-09-13T10:24:02.170Z,76.8
2022-09-13T10:55:04.746Z,79
2022-09-13T11:26:07.528Z,72.5
2022-09-13T11:56:10.016Z,72.5
2022-09-13T12:30:12.905Z,72
2022-09-13T13:00:15.166Z,77.9
2022-09-13T13:30:17.731Z,72.5
2022-09-13T14:00:20.147Z,71.4
2022-09-13T14:30:22.580Z,67.7
2022-09-13T15:00:25.078Z,69.3
2022-09-13T15:30:27.657Z,66.6
2022-09-13T16:00:30.065Z,62.8
2022-09-13T16:31:32.505Z,59.6
2022-09-13T17:01:35.185Z,58
2022-09-13T17:35:37.772Z,54.8
2022-09-13T18:05:40.212Z,53.7
2022-09-13T18:35:42.726Z,53.2
2022-09-13T19:05:45.256Z,52.6
2022-09-13T19:35:47.848Z,53.7
2022-09-13T20:05:50.532Z,53.7
2022-09-13T20:36:53.130Z,53.2
2022-09-13T21:06:55.645Z,52.6
2022-09-13T21:37:58.139Z,52.1
2022-09-13T22:08:00.588Z,52.6
2022-09-13T22:42:03.479Z,51.5
2022-09-13T23:12:05.854Z,52.1
2022-09-13T23:43:08.345Z,52.1
